createdAt,value
2023-01-29T00:01:13.935Z,85.44
2023-01-29T00:03:41.544Z,84.93
2023-01-29T00:06:09.383Z,85.30
2023-01-29T00:08:41.389Z,85.51
2023-01-29T00:11:09.299Z,85.30
2023-01-29T00:13:42.580Z,84.45
2023-01-29T00:16:22.239Z,84.52
2023-01-29T00:18:49.893Z,84.35
2023-01-29T00:21:19.058Z,83.87
2023-01-29T00:23:46.600Z,84.10
2023-01-29T00:26:13.977Z,83.99
2023-01-29T00:28:46.887Z,83.82
2023-01-29T00:31:19.707Z,83.83
2023-01-29T00:33:47.206Z,83.56
2023-01-29T00:36:22.621Z,84.10
2023-01-29T00:39:00.890Z,84.27
2023-01-29T00:41:49.602Z,83.74
2023-01-29T00:44:34.982Z,83.74
2023-01-29T00:47:29.704Z,83.54
2023-01-29T00:49:57.594Z,84.12
2023-01-29T00:52:25.074Z,83.77
2023-01-29T00:55:01.258Z,83.62
2023-01-29T00:57:32.744Z,83.96
2023-01-29T01:00:13.189Z,84.06
2023-01-29T01:03:02.709Z,83.96
2023-01-29T01:05:29.508Z,84.08
2023-01-29T01:08:01.279Z,84.14
2023-01-29T01:10:33.432Z,83.77
2023-01-29T01:13:06.462Z,83.73
2023-01-29T01:15:42.948Z,83.63
2023-01-29T01:18:09.714Z,84.42
2023-01-29T01:20:38.658Z,84.05
2023-01-29T01:23:05.338Z,84.29
2023-01-29T01:25:36.088Z,84.22
2023-01-29T01:28:17.892Z,84.83
2023-01-29T01:30:48.377Z,84.38
2023-01-29T01:33:15.137Z,84.78
2023-01-29T01:35:41.753Z,84.59
2023-01-29T01:38:09.415Z,84.83
2023-01-29T01:40:36.455Z,84.61
2023-01-29T01:43:03.880Z,84.36
2023-01-29T01:45:33.114Z,84.65
2023-01-29T01:48:06.206Z,84.77
2023-01-29T01:50:36.689Z,84.54
2023-01-29T01:53:21.494Z,84.21
2023-01-29T01:55:56.274Z,84.81
2023-01-29T01:58:43.744Z,85.19
2023-01-29T02:01:13.068Z,85.04
2023-01-29T02:04:13.939Z,85.11
2023-01-29T02:07:00.296Z,84.93
2023-01-29T02:09:39.453Z,85.76
2023-01-29T02:12:08.089Z,85.40
2023-01-29T02:14:39.589Z,86.05
2023-01-29T02:17:16.738Z,86.02
2023-01-29T02:20:21.359Z,86.52
2023-01-29T02:23:09.816Z,87.20
2023-01-29T02:26:07.979Z,86.61
2023-01-29T02:29:22.653Z,86.78
2023-01-29T02:32:07.373Z,87.03
2023-01-29T02:34:55.726Z,86.63
2023-01-29T02:37:35.032Z,86.38
2023-01-29T02:40:21.271Z,86.50
2023-01-29T02:42:57.785Z,86.91
2023-01-29T02:45:45.649Z,86.27
2023-01-29T02:48:23.960Z,86.81
2023-01-29T02:51:03.627Z,86.15
2023-01-29T02:53:36.448Z,85.41
2023-01-29T02:56:35.999Z,85.97
2023-01-29T02:59:40.636Z,85.58
2023-01-29T03:02:22.279Z,85.57
2023-01-29T03:05:08.956Z,85.41
2023-01-29T03:07:52.249Z,85.69
2023-01-29T03:10:32.386Z,85.33
2023-01-29T03:13:06.334Z,85.46
2023-01-29T03:15:53.806Z,85.40
2023-01-29T03:18:33.702Z,85.45
2023-01-29T03:21:37.305Z,86.03
2023-01-29T03:24:27.410Z,85.45
2023-01-29T03:27:13.024Z,85.74
2023-01-29T03:30:02.692Z,85.84
2023-01-29T03:32:41.424Z,85.83
2023-01-29T03:35:13.075Z,85.23
2023-01-29T03:37:49.177Z,85.48
2023-01-29T03:40:16.929Z,85.48
2023-01-29T03:43:10.829Z,85.17
2023-01-29T03:46:10.687Z,85.39
2023-01-29T03:48:48.007Z,85.30
2023-01-29T03:51:38.768Z,85.78
2023-01-29T03:54:36.678Z,85.46
2023-01-29T03:57:19.899Z,85.85
2023-01-29T03:59:57.535Z,86.01
2023-01-29T04:02:35.637Z,86.14
2023-01-29T04:05:27.484Z,85.93
2023-01-29T04:08:08.162Z,86.06
2023-01-29T04:10:39.020Z,85.72
2023-01-29T04:13:12.002Z,86.14
2023-01-29T04:15:50.932Z,85.79
2023-01-29T04:18:27.715Z,85.55
2023-01-29T04:20:56.106Z,85.71
2023-01-29T04:23:30.997Z,85.50
2023-01-29T04:26:22.751Z,85.19
2023-01-29T04:29:30.448Z,85.32
2023-01-29T04:32:28.533Z,85.43
2023-01-29T04:35:15.691Z,85.25
2023-01-29T04:37:56.303Z,84.97
2023-01-29T04:40:37.753Z,84.99
2023-01-29T04:43:17.529Z,85.00
2023-01-29T04:46:15.594Z,84.96
2023-01-29T04:49:27.054Z,84.70
2023-01-29T04:52:45.245Z,84.73
2023-01-29T04:55:37.143Z,85.11
2023-01-29T04:58:09.255Z,85.38
2023-01-29T05:00:42.051Z,85.66
2023-01-29T05:03:12.674Z,85.70
2023-01-29T05:05:46.654Z,85.45
2023-01-29T05:08:20.860Z,85.22
2023-01-29T05:11:00.707Z,85.61
2023-01-29T05:13:38.523Z,85.72
2023-01-29T05:16:27.898Z,85.76
2023-01-29T05:18:55.224Z,85.88
2023-01-29T05:21:28.584Z,86.18
2023-01-29T05:24:20.723Z,86.27
2023-01-29T05:27:08.875Z,86.62
2023-01-29T05:29:35.690Z,86.64
2023-01-29T05:32:14.774Z,87.47
2023-01-29T05:34:47.835Z,88.73
2023-01-29T05:37:16.401Z,90.61
2023-01-29T05:39:49.426Z,91.82
2023-01-29T05:42:16.763Z,93.10
2023-01-29T05:44:47.778Z,93.78
2023-01-29T05:47:24.932Z,93.94
2023-01-29T05:49:54.503Z,94.45
2023-01-29T05:52:25.005Z,94.76
2023-01-29T05:54:52.742Z,95.03
2023-01-29T05:57:22.618Z,95.79
2023-01-29T05:59:51.374Z,96.11
2023-01-29T06:02:26.833Z,96.33
2023-01-29T06:04:57.462Z,96.64
2023-01-29T06:07:30.056Z,97.13
2023-01-29T06:09:57.219Z,97.43
2023-01-29T06:12:24.492Z,97.43
2023-01-29T06:14:54.659Z,97.41
2023-01-29T06:17:21.859Z,97.70
2023-01-29T06:19:51.274Z,97.58
2023-01-29T06:22:21.684Z,97.83
2023-01-29T06:24:49.307Z,97.84
2023-01-29T06:27:16.459Z,97.92
2023-01-29T06:29:49.379Z,98.05
2023-01-29T06:32:19.528Z,97.84
2023-01-29T06:34:52.735Z,97.65
2023-01-29T06:37:20.435Z,97.67
2023-01-29T06:39:48.541Z,97.85
2023-01-29T06:42:21.607Z,97.93
2023-01-29T06:45:00.895Z,97.82
2023-01-29T06:47:36.468Z,98.08
2023-01-29T06:50:16.023Z,97.65
2023-01-29T06:52:50.054Z,97.93
2023-01-29T06:55:19.356Z,97.87
2023-01-29T06:57:46.599Z,97.93
2023-01-29T07:00:13.981Z,97.90
2023-01-29T07:02:43.365Z,97.66
2023-01-29T07:05:16.777Z,97.63
2023-01-29T07:07:43.931Z,97.64
2023-01-29T07:10:10.878Z,97.52
2023-01-29T07:12:37.523Z,97.40
2023-01-29T07:15:07.235Z,97.43
2023-01-29T07:17:37.564Z,97.29
2023-01-29T07:20:06.313Z,97.40
2023-01-29T07:22:33.077Z,97.35
2023-01-29T07:25:04.608Z,97.52
2023-01-29T07:27:36.227Z,97.51
2023-01-29T07:30:03.322Z,97.47
2023-01-29T07:32:42.735Z,97.52
2023-01-29T07:35:11.485Z,97.01
2023-01-29T07:37:44.891Z,97.32
2023-01-29T07:40:11.997Z,97.33
2023-01-29T07:42:41.482Z,97.27
2023-01-29T07:45:11.867Z,97.47
2023-01-29T07:47:41.843Z,97.46
2023-01-29T07:50:09.098Z,97.26
2023-01-29T07:52:38.978Z,97.37
2023-01-29T07:55:11.350Z,97.49
2023-01-29T07:57:47.912Z,97.51
2023-01-29T08:00:15.538Z,97.71
2023-01-29T08:02:42.396Z,97.50
2023-01-29T08:05:12.629Z,97.47
2023-01-29T08:07:39.272Z,97.52
2023-01-29T08:10:06.251Z,97.57
2023-01-29T08:12:33.092Z,97.59
2023-01-29T08:14:59.804Z,97.64
2023-01-29T08:17:26.440Z,97.62
2023-01-29T08:19:53.254Z,97.47
2023-01-29T08:22:20.051Z,97.80
2023-01-29T08:24:53.747Z,97.85
2023-01-29T08:27:26.903Z,97.66
2023-01-29T08:29:53.678Z,98.04
2023-01-29T08:32:20.449Z,98.09
2023-01-29T08:34:49.414Z,98.33
2023-01-29T08:37:16.140Z,98.18
2023-01-29T08:42:09.469Z,98.48
2023-01-29T08:44:36.780Z,98.49
2023-01-29T08:47:03.703Z,98.32
2023-01-29T08:49:33.331Z,98.33
2023-01-29T08:52:08.924Z,98.40
2023-01-29T08:54:35.580Z,98.63
2023-01-29T08:57:02.263Z,98.60
2023-01-29T08:59:29.318Z,98.74
2023-01-29T09:01:55.936Z,98.44
2023-01-29T09:04:22.568Z,98.50
2023-01-29T09:06:49.229Z,98.44
2023-01-29T09:09:19.036Z,98.38
2023-01-29T09:11:45.686Z,98.45
2023-01-29T09:14:14.597Z,98.44
2023-01-29T09:16:44.176Z,98.28
2023-01-29T09:19:11.536Z,98.05
2023-01-29T09:21:38.237Z,97.88
2023-01-29T09:24:05.317Z,97.93
2023-01-29T09:26:32.051Z,97.71
2023-01-29T09:28:58.713Z,97.71
2023-01-29T09:31:29.266Z,97.77
2023-01-29T09:33:56.429Z,97.37
2023-01-29T09:36:23.112Z,97.59
2023-01-29T09:38:50.337Z,97.31
2023-01-29T09:41:22.983Z,97.05
2023-01-29T09:43:53.629Z,97.00
2023-01-29T09:46:28.777Z,97.04
2023-01-29T09:49:08.352Z,96.96
2023-01-29T09:51:42.019Z,96.73
2023-01-29T09:54:18.674Z,96.37
2023-01-29T09:56:46.815Z,96.32
2023-01-29T09:59:17.314Z,96.48
2023-01-29T10:01:58.896Z,96.33
2023-01-29T10:04:48.061Z,95.70
2023-01-29T10:07:47.201Z,95.54
2023-01-29T10:10:36.540Z,95.77
2023-01-29T10:13:03.134Z,95.12
2023-01-29T10:15:47.618Z,94.75
2023-01-29T10:18:37.405Z,94.96
2023-01-29T10:21:11.963Z,94.45
2023-01-29T10:23:48.004Z,94.62
2023-01-29T10:26:14.760Z,94.10
2023-01-29T10:28:48.561Z,93.83
2023-01-29T10:31:29.081Z,93.96
2023-01-29T10:34:02.932Z,92.66
2023-01-29T10:36:38.921Z,93.08
2023-01-29T10:39:05.961Z,92.55
2023-01-29T10:41:50.608Z,91.63
2023-01-29T10:44:40.636Z,92.19
2023-01-29T10:47:32.478Z,91.52
2023-01-29T10:50:23.454Z,91.59
2023-01-29T10:53:04.200Z,91.80
2023-01-29T10:56:17.392Z,91.63
2023-01-29T10:58:50.822Z,90.63
2023-01-29T11:01:19.851Z,89.95
2023-01-29T11:03:56.273Z,90.88
2023-01-29T11:06:32.350Z,90.05
2023-01-29T11:09:22.259Z,89.65
2023-01-29T11:12:06.162Z,89.52
2023-01-29T11:14:54.122Z,88.89
2023-01-29T11:17:23.314Z,88.56
2023-01-29T11:19:51.854Z,88.37
2023-01-29T11:22:21.496Z,88.47
2023-01-29T11:25:16.764Z,89.00
2023-01-29T14:03:11.314Z,84.92
2023-01-29T14:05:41.588Z,84.96
2023-01-29T14:08:18.326Z,85.44
2023-01-29T14:10:45.096Z,85.74
2023-01-29T14:13:23.687Z,86.08
2023-01-29T14:16:00.361Z,86.70
2023-01-29T14:18:29.809Z,86.45
2023-01-29T14:21:06.191Z,86.35
2023-01-29T14:23:49.361Z,86.59
2023-01-29T14:26:28.336Z,87.21
2023-01-29T14:29:03.439Z,88.21
2023-01-29T14:31:44.859Z,89.40
2023-01-29T14:34:31.596Z,90.54
2023-01-29T14:37:04.738Z,90.69
2023-01-29T14:39:43.506Z,90.84
2023-01-29T14:42:23.214Z,91.17
2023-01-29T14:44:56.019Z,91.71
2023-01-29T14:47:46.340Z,92.44
2023-01-29T14:50:18.991Z,92.61
2023-01-29T14:52:47.855Z,92.52
2023-01-29T14:55:50.736Z,93.01
2023-01-29T14:58:32.189Z,92.83
2023-01-29T15:01:05.169Z,92.77
2023-01-29T15:03:37.710Z,93.20
2023-01-29T15:06:06.595Z,93.03
2023-01-29T15:08:43.969Z,93.19
2023-01-29T15:11:36.132Z,93.02
2023-01-29T15:14:33.749Z,93.41
2023-01-29T15:17:09.585Z,93.70
2023-01-29T15:19:48.537Z,93.58
2023-01-29T15:22:29.935Z,93.91
2023-01-29T15:25:13.657Z,93.71
2023-01-29T15:27:45.663Z,93.42
2023-01-29T15:30:25.842Z,92.98
2023-01-29T15:32:56.462Z,92.76
2023-01-29T15:35:36.949Z,93.12
2023-01-29T15:38:06.289Z,93.41
2023-01-29T15:40:34.400Z,93.42
2023-01-29T15:43:01.096Z,93.08
2023-01-29T15:45:35.112Z,93.75
2023-01-29T15:48:29.779Z,93.40
2023-01-29T15:50:58.708Z,93.15
2023-01-29T15:53:35.718Z,93.63
2023-01-29T15:56:02.798Z,93.23
2023-01-29T15:58:32.370Z,93.33
2023-01-29T16:01:01.131Z,93.74
2023-01-29T16:03:32.194Z,93.81
2023-01-29T16:06:02.951Z,93.26
2023-01-29T16:08:29.753Z,93.49
2023-01-29T16:11:03.367Z,93.33
2023-01-29T16:13:36.176Z,93.14
2023-01-29T16:16:19.766Z,93.33
2023-01-29T16:18:59.638Z,93.22
2023-01-29T16:21:47.096Z,92.84
2023-01-29T16:24:22.289Z,92.49
2023-01-29T16:26:51.683Z,92.91
2023-01-29T16:29:31.298Z,92.11
2023-01-29T16:32:02.192Z,92.46
2023-01-29T16:34:55.003Z,92.55
2023-01-29T16:37:32.654Z,92.28
2023-01-29T16:39:59.767Z,92.21
2023-01-29T16:42:32.399Z,92.12
2023-01-29T16:45:05.224Z,92.29
2023-01-29T16:47:41.941Z,92.32
2023-01-29T16:50:17.798Z,91.75
2023-01-29T16:53:27.684Z,91.97
2023-01-29T16:55:54.391Z,91.73
2023-01-29T16:58:30.486Z,91.61
2023-01-29T17:01:02.356Z,91.48
2023-01-29T17:03:32.985Z,91.95
2023-01-29T17:06:08.976Z,92.06
2023-01-29T17:08:35.723Z,91.92
2023-01-29T17:11:03.112Z,91.55
2023-01-29T17:13:45.484Z,91.47
2023-01-29T17:16:20.598Z,91.49
2023-01-29T17:18:47.287Z,91.44
2023-01-29T17:21:13.961Z,91.24
2023-01-29T17:23:40.691Z,91.36
2023-01-29T17:26:13.008Z,91.54
2023-01-29T17:28:40.824Z,91.68
2023-01-29T17:31:10.164Z,91.84
2023-01-29T17:33:42.241Z,91.81
2023-01-29T17:36:21.172Z,91.99
2023-01-29T17:38:47.910Z,93.33
2023-01-29T17:41:22.598Z,93.77
2023-01-29T17:43:49.697Z,93.96
2023-01-29T17:46:18.316Z,94.49
2023-01-29T17:48:46.085Z,94.68
2023-01-29T17:51:15.663Z,95.06
2023-01-29T17:53:47.657Z,95.18
2023-01-29T17:56:37.343Z,94.42
2023-01-29T17:59:14.080Z,94.02
2023-01-29T18:01:44.279Z,93.58
2023-01-29T18:04:11.944Z,93.39
2023-01-29T18:06:47.380Z,93.34
2023-01-29T18:09:20.563Z,92.52
2023-01-29T18:11:49.311Z,91.80
2023-01-29T18:14:19.679Z,91.54
2023-01-29T18:16:49.330Z,91.28
2023-01-29T18:19:27.660Z,91.46
2023-01-29T18:21:54.529Z,91.46
2023-01-29T18:24:23.701Z,91.09
2023-01-29T18:26:55.943Z,91.00
2023-01-29T18:29:30.499Z,90.54
2023-01-29T18:31:57.497Z,90.81
2023-01-29T18:34:33.031Z,90.54
2023-01-29T18:37:00.392Z,90.54
2023-01-29T18:39:27.070Z,90.63
2023-01-29T18:41:53.708Z,90.46
2023-01-29T18:44:20.806Z,90.59
2023-01-29T18:46:47.701Z,90.48
2023-01-29T18:49:16.873Z,90.38
2023-01-29T18:51:43.478Z,90.08
2023-01-29T18:54:13.168Z,90.01
2023-01-29T18:57:13.156Z,90.13
2023-01-29T18:59:29.408Z,90.06
2023-01-29T19:01:59.082Z,90.53
2023-01-29T19:04:25.969Z,90.02
2023-01-29T19:06:52.677Z,90.39
2023-01-29T19:09:28.749Z,90.61
2023-01-29T19:11:55.414Z,90.67
2023-01-29T19:14:22.102Z,90.67
2023-01-29T19:16:52.387Z,90.54
2023-01-29T19:19:26.113Z,90.33
2023-01-29T19:21:54.363Z,90.78
2023-01-29T19:24:41.939Z,90.25
2023-01-29T19:27:11.704Z,90.31
2023-01-29T19:29:43.541Z,90.75
2023-01-29T19:32:16.442Z,90.96
2023-01-29T19:34:43.087Z,91.03
2023-01-29T19:37:09.691Z,90.74
2023-01-29T19:39:42.147Z,91.07
2023-01-29T19:42:12.886Z,91.04
2023-01-29T19:44:45.769Z,91.01
2023-01-29T19:47:12.738Z,90.92
2023-01-29T19:49:52.169Z,89.98
2023-01-29T19:52:50.300Z,89.86
2023-01-29T19:55:17.650Z,89.89
2023-01-29T19:57:44.920Z,89.65
2023-01-29T20:00:24.079Z,89.18
2023-01-29T20:03:03.277Z,89.36
2023-01-29T20:05:31.328Z,89.25
2023-01-29T20:08:00.890Z,88.82
2023-01-29T20:10:35.453Z,88.46
2023-01-29T20:13:03.020Z,88.09
2023-01-29T20:15:39.073Z,87.73
2023-01-29T20:18:11.888Z,88.05
2023-01-29T20:20:46.741Z,87.48
2023-01-29T20:23:16.810Z,87.46
2023-01-29T20:25:47.107Z,86.63
2023-01-29T20:28:15.629Z,86.32
2023-01-29T20:30:55.475Z,86.32
2023-01-29T20:33:31.899Z,86.01
2023-01-29T20:36:00.690Z,86.43
2023-01-29T20:38:30.547Z,86.10
2023-01-29T20:41:12.105Z,86.15
2023-01-29T20:43:38.812Z,86.50
2023-01-29T20:46:05.485Z,86.79
2023-01-29T20:48:33.854Z,87.12
2023-01-29T20:51:09.896Z,87.67
2023-01-29T20:53:37.069Z,87.95
2023-01-29T20:56:04.773Z,86.80
2023-01-29T20:58:37.780Z,87.52
2023-01-29T21:01:12.431Z,87.03
2023-01-29T21:03:40.097Z,86.59
2023-01-29T21:06:08.949Z,87.04
2023-01-29T21:08:36.538Z,86.82
2023-01-29T21:11:07.599Z,86.76
2023-01-29T21:13:34.464Z,86.43
2023-01-29T21:16:02.200Z,86.38
2023-01-29T21:18:29.141Z,85.92
2023-01-29T21:20:55.945Z,86.20
2023-01-29T21:23:22.719Z,85.69
2023-01-29T21:25:49.483Z,85.44
2023-01-29T21:28:16.832Z,85.52
2023-01-29T21:30:50.617Z,86.07
2023-01-29T21:33:20.769Z,85.80
2023-01-29T21:35:58.464Z,85.62
2023-01-29T21:38:25.414Z,85.79
2023-01-29T21:40:56.596Z,85.92
2023-01-29T21:43:23.220Z,86.42
2023-01-29T21:45:59.673Z,86.32
2023-01-29T21:48:30.370Z,86.31
2023-01-29T21:50:57.213Z,86.22
2023-01-29T21:53:23.908Z,85.89
2023-01-29T21:55:50.587Z,86.10
2023-01-29T21:58:19.884Z,86.52
2023-01-29T22:01:18.240Z,85.87
2023-01-29T22:03:51.262Z,86.53
2023-01-29T22:06:23.515Z,86.82
2023-01-29T22:08:53.737Z,86.37
2023-01-29T22:11:20.849Z,86.37
2023-01-29T22:13:47.492Z,86.39
2023-01-29T22:16:14.262Z,85.90
2023-01-29T22:18:41.037Z,85.91
2023-01-29T22:21:07.823Z,86.27
2023-01-29T22:23:34.588Z,86.32
2023-01-29T22:26:12.291Z,86.04
2023-01-29T22:28:41.770Z,86.09
2023-01-29T22:31:11.551Z,86.27
2023-01-29T22:33:38.359Z,86.16
2023-01-29T22:36:05.467Z,86.21
2023-01-29T22:38:37.318Z,86.24
2023-01-29T22:41:04.756Z,85.88
2023-01-29T22:43:31.421Z,85.81
2023-01-29T22:46:03.857Z,86.00
2023-01-29T22:48:30.757Z,86.16
2023-01-29T22:51:11.085Z,85.49
2023-01-29T22:54:01.181Z,84.86
2023-01-29T22:56:30.778Z,84.76
2023-01-29T22:59:00.031Z,84.75
2023-01-29T23:01:31.990Z,84.43
2023-01-29T23:04:00.121Z,84.59
2023-01-29T23:06:29.526Z,84.50
2023-01-29T23:08:56.190Z,84.15
2023-01-29T23:11:39.751Z,84.08
2023-01-29T23:14:06.449Z,84.42
2023-01-29T23:16:34.191Z,83.95
2023-01-29T23:19:00.871Z,83.91
2023-01-29T23:21:35.438Z,84.26
2023-01-29T23:24:13.525Z,83.63
2023-01-29T23:27:01.203Z,83.23
2023-01-29T23:29:30.040Z,83.29
2023-01-29T23:32:02.600Z,83.51
2023-01-29T23:34:38.021Z,83.41
2023-01-29T23:37:08.449Z,83.50
2023-01-29T23:39:39.828Z,83.13
2023-01-29T23:42:08.452Z,83.39
2023-01-29T23:44:35.977Z,83.21
2023-01-29T23:47:12.276Z,83.53
2023-01-29T23:49:43.563Z,84.11
2023-01-29T23:52:15.517Z,83.97
2023-01-29T23:54:54.481Z,83.79
2023-01-29T23:57:24.546Z,83.30
2023-01-29T23:59:55.969Z,83.76
